Time;durP1;ratioP1;P1;durP2;ratioP2;P2;SDS_P1;SDS_P2;PMS_P1;PMS_P2;Temp;Humidity;BMP_temperature;BMP_pressure;BME280_temperature;BME280_humidity;BME280_pressure;Samples;Min_cycle;Max_cycle;Signal;HPM_P1;HPM_P2
2023/02/15 00:01:13;;;;;;;2.40;1.75;;;;;;;;;;5105697;28;20367;-89
2023/02/15 00:03:39;;;;;;;3.53;2.00;;;;;;;;;;5100924;28;20103;-88
2023/02/15 00:06:05;;;;;;;5.63;2.13;;;;;;;;;;5109380;27;20431;-88
2023/02/15 00:08:31;;;;;;;3.78;2.35;;;;;;;;;;5109955;28;20035;-88
2023/02/15 00:11:05;;;;;;;3.17;2.30;;;;;;;;;;5103060;27;20388;-88
2023/02/15 00:13:31;;;;;;;3.75;1.88;;;;;;;;;;5090461;28;20106;-88
2023/02/15 00:16:04;;;;;;;3.08;1.75;;;;;;;;;;5092888;28;20034;-88
2023/02/15 00:18:30;;;;;;;2.63;1.73;;;;;;;;;;5106033;28;20038;-88
2023/02/15 00:20:56;;;;;;;3.45;1.70;;;;;;;;;;5102157;28;20027;-88
2023/02/15 00:23:22;;;;;;;2.53;1.67;;;;;;;;;;5093999;28;20024;-87
2023/02/15 00:25:48;;;;;;;2.25;1.65;;;;;;;;;;5103606;28;20043;-87
2023/02/15 00:28:14;;;;;;;2.20;1.70;;;;;;;;;;5102924;28;20028;-87
2023/02/15 00:30:40;;;;;;;3.55;2.22;;;;;;;;;;5102466;28;20600;-88
2023/02/15 00:33:06;;;;;;;2.80;1.90;;;;;;;;;;5096671;28;20381;-87
2023/02/15 00:35:32;;;;;;;3.40;2.10;;;;;;;;;;5094389;28;20024;-87
2023/02/15 00:37:58;;;;;;;3.70;2.15;;;;;;;;;;5102515;28;20117;-87
2023/02/15 00:40:24;;;;;;;2.22;1.90;;;;;;;;;;5105135;27;20046;-87
2023/02/15 00:42:50;;;;;;;3.05;1.98;;;;;;;;;;5096708;28;20035;-86
2023/02/15 00:45:16;;;;;;;4.30;2.30;;;;;;;;;;5098230;28;20087;-86
2023/02/15 00:47:42;;;;;;;2.88;1.70;;;;;;;;;;5100375;27;20072;-87
2023/02/15 00:50:08;;;;;;;1.92;1.50;;;;;;;;;;5094506;28;20478;-86
2023/02/15 00:52:34;;;;;;;3.85;1.73;;;;;;;;;;5103937;27;20793;-89
2023/02/15 00:55:00;;;;;;;2.72;1.67;;;;;;;;;;5104889;28;20023;-88
2023/02/15 00:57:26;;;;;;;2.97;1.83;;;;;;;;;;5106728;28;20031;-87
2023/02/15 00:59:52;;;;;;;2.75;1.80;;;;;;;;;;5100341;27;20028;-87
2023/02/15 01:02:17;;;;;;;2.53;1.63;;;;;;;;;;5102530;28;20042;-88
2023/02/15 01:04:43;;;;;;;4.05;1.98;;;;;;;;;;5100794;28;20042;-89
2023/02/15 01:07:09;;;;;;;3.33;1.60;;;;;;;;;;5096553;28;20063;-87
2023/02/15 01:09:35;;;;;;;3.75;2.42;;;;;;;;;;5104806;27;20054;-87
2023/02/15 01:12:01;;;;;;;3.10;2.00;;;;;;;;;;5102416;27;20453;-88
2023/02/15 01:14:27;;;;;;;4.32;2.10;;;;;;;;;;5103732;28;20016;-87
2023/02/15 01:16:53;;;;;;;3.90;2.40;;;;;;;;;;5090898;27;20024;-87
2023/02/15 01:19:19;;;;;;;3.95;2.00;;;;;;;;;;5100659;28;20024;-87
2023/02/15 01:21:45;;;;;;;4.53;1.90;;;;;;;;;;5099186;28;20500;-88
2023/02/15 01:24:13;;;;;;;2.33;1.60;;;;;;;;;;5098510;28;20024;-87
2023/02/15 01:26:38;;;;;;;2.88;1.80;;;;;;;;;;5106327;28;20095;-87
2023/02/15 01:29:04;;;;;;;3.50;1.88;;;;;;;;;;5097126;28;20031;-88
2023/02/15 01:31:30;;;;;;;2.72;1.85;;;;;;;;;;5106741;28;20096;-88
2023/02/15 01:33:56;;;;;;;4.07;1.98;;;;;;;;;;5095963;27;20055;-88
2023/02/15 01:36:22;;;;;;;3.50;2.20;;;;;;;;;;5101372;28;20645;-87
2023/02/15 01:38:49;;;;;;;3.22;1.85;;;;;;;;;;5102227;28;20390;-88
2023/02/15 01:41:24;;;;;;;1.85;1.55;;;;;;;;;;5095144;28;20035;-87
2023/02/15 01:43:54;;;;;;;3.42;1.58;;;;;;;;;;5092283;28;20081;-87
2023/02/15 01:46:23;;;;;;;2.75;1.80;;;;;;;;;;5105405;28;20028;-87
2023/02/15 01:48:51;;;;;;;3.08;1.90;;;;;;;;;;5098959;27;20052;-88
2023/02/15 01:51:18;;;;;;;2.33;1.60;;;;;;;;;;5098835;28;20042;-88
2023/02/15 01:53:48;;;;;;;2.30;1.90;;;;;;;;;;5103650;28;20378;-87
2023/02/15 01:56:19;;;;;;;4.28;1.73;;;;;;;;;;5102850;28;20118;-87
2023/02/15 01:58:46;;;;;;;4.68;1.73;;;;;;;;;;5108692;28;20034;-88
2023/02/15 02:01:13;;;;;;;2.35;1.45;;;;;;;;;;5095886;28;20044;-88
2023/02/15 02:03:58;;;;;;;3.17;1.98;;;;;;;;;;5098434;28;20118;-87
2023/02/15 02:06:24;;;;;;;3.25;1.90;;;;;;;;;;5095049;28;20053;-87
2023/02/15 02:08:50;;;;;;;4.03;1.90;;;;;;;;;;5099953;28;20063;-87
2023/02/15 02:11:16;;;;;;;2.15;1.50;;;;;;;;;;5103732;28;20031;-86
2023/02/15 02:13:43;;;;;;;5.13;1.95;;;;;;;;;;5106761;28;20038;-86
2023/02/15 02:16:25;;;;;;;3.15;1.92;;;;;;;;;;5106180;28;20035;-87
2023/02/15 02:18:58;;;;;;;3.67;2.00;;;;;;;;;;5107086;28;20032;-88
2023/02/15 02:21:43;;;;;;;3.08;1.70;;;;;;;;;;5093139;28;20028;-86
2023/02/15 02:24:31;;;;;;;2.45;1.73;;;;;;;;;;5105296;28;20409;-87
2023/02/15 02:27:16;;;;;;;2.92;2.10;;;;;;;;;;5058670;28;20046;-86
2023/02/15 02:30:01;;;;;;;3.63;2.20;;;;;;;;;;5096689;28;20061;-87
2023/02/15 02:32:38;;;;;;;3.38;1.63;;;;;;;;;;5107129;27;20042;-86
2023/02/15 02:35:05;;;;;;;2.38;1.50;;;;;;;;;;5082647;28;20030;-86
2023/02/15 02:37:35;;;;;;;3.03;1.92;;;;;;;;;;5100180;28;20111;-86
2023/02/15 02:40:19;;;;;;;2.60;1.60;;;;;;;;;;5103055;28;20405;-86
2023/02/15 02:42:50;;;;;;;2.75;1.70;;;;;;;;;;5105894;27;20028;-86
2023/02/15 02:45:29;;;;;;;3.30;1.98;;;;;;;;;;5101388;28;20027;-89
2023/02/15 02:47:57;;;;;;;3.17;1.50;;;;;;;;;;5107070;28;20032;-88
2023/02/15 02:50:26;;;;;;;2.25;1.48;;;;;;;;;;5098084;28;20119;-86
2023/02/15 02:52:53;;;;;;;4.40;2.08;;;;;;;;;;5109165;28;20118;-87
2023/02/15 02:55:32;;;;;;;1.83;1.40;;;;;;;;;;5106982;28;20102;-87
2023/02/15 02:58:08;;;;;;;2.63;1.60;;;;;;;;;;5103208;28;20028;-86
2023/02/15 03:00:42;;;;;;;2.60;1.98;;;;;;;;;;5100958;27;20030;-87
2023/02/15 03:03:23;;;;;;;3.25;1.90;;;;;;;;;;5105840;28;20449;-87
2023/02/15 03:05:51;;;;;;;2.87;1.73;;;;;;;;;;5098424;28;20311;-86
2023/02/15 03:08:21;;;;;;;3.65;1.88;;;;;;;;;;5092587;28;20515;-87
2023/02/15 03:10:48;;;;;;;3.63;1.70;;;;;;;;;;5106330;27;20051;-86
2023/02/15 03:13:14;;;;;;;2.97;2.03;;;;;;;;;;5102162;28;20040;-87
2023/02/15 03:18:31;;;;;;;2.60;1.73;;;;;;;;;;5106242;28;20073;-87
2023/02/15 03:20:58;;;;;;;2.90;1.83;;;;;;;;;;5101428;28;20028;-88
2023/02/15 03:23:26;;;;;;;2.78;1.75;;;;;;;;;;5106729;27;20128;-87
2023/02/15 03:26:00;;;;;;;3.60;1.90;;;;;;;;;;5108964;28;20720;-87
2023/02/15 03:28:29;;;;;;;4.10;2.20;;;;;;;;;;5107788;28;20032;-88
2023/02/15 03:30:58;;;;;;;1.85;1.60;;;;;;;;;;5107806;28;20040;-87
2023/02/15 03:33:24;;;;;;;3.60;2.03;;;;;;;;;;5109703;28;20031;-86
2023/02/15 03:35:53;;;;;;;2.15;1.70;;;;;;;;;;5108854;28;20035;-87
2023/02/15 03:38:26;;;;;;;4.72;1.77;;;;;;;;;;5109964;28;20046;-89
2023/02/15 03:41:09;;;;;;;3.35;2.13;;;;;;;;;;5104136;28;20234;-88
2023/02/15 03:43:40;;;;;;;2.00;1.65;;;;;;;;;;5097143;27;20028;-87
2023/02/15 03:46:08;;;;;;;2.70;1.80;;;;;;;;;;5102820;28;20072;-87
2023/02/15 03:48:38;;;;;;;4.10;1.58;;;;;;;;;;5109761;28;20481;-88
2023/02/15 03:53:52;;;;;;;2.45;1.67;;;;;;;;;;5091886;28;20119;-87
2023/02/15 03:56:18;;;;;;;3.13;1.98;;;;;;;;;;5103622;28;20462;-87
2023/02/15 04:04:21;;;;;;;1.75;1.52;;;;;;;;;;5100984;27;20057;-86
2023/02/15 04:06:47;;;;;;;3.47;1.92;;;;;;;;;;5102952;27;20028;-87
2023/02/15 04:11:58;;;;;;;3.83;1.85;;;;;;;;;;5100045;27;20074;-86
2023/02/15 04:17:09;;;;;;;3.35;1.77;;;;;;;;;;5104860;28;20043;-86
2023/02/15 04:25:12;;;;;;;2.80;1.65;;;;;;;;;;5102894;27;20488;-86
2023/02/15 04:27:38;;;;;;;3.00;1.70;;;;;;;;;;5101670;28;20027;-87
2023/02/15 04:30:04;;;;;;;4.50;2.45;;;;;;;;;;5104638;28;20027;-87
2023/02/15 04:32:30;;;;;;;4.25;1.90;;;;;;;;;;5105830;28;20429;-88
2023/02/15 04:34:56;;;;;;;4.28;1.83;;;;;;;;;;5104013;27;20020;-83
2023/02/15 04:37:22;;;;;;;5.63;2.10;;;;;;;;;;5101444;27;20055;-79
2023/02/15 04:39:49;;;;;;;3.65;1.92;;;;;;;;;;5102283;28;20036;-87
2023/02/15 04:42:15;;;;;;;3.70;2.10;;;;;;;;;;5097530;27;20477;-85
2023/02/15 04:44:41;;;;;;;5.03;2.72;;;;;;;;;;5096096;28;20026;-86
2023/02/15 04:47:07;;;;;;;3.17;2.20;;;;;;;;;;5103281;27;20721;-85
2023/02/15 04:49:33;;;;;;;3.42;2.50;;;;;;;;;;5104322;28;20027;-87
2023/02/15 04:51:59;;;;;;;2.03;1.77;;;;;;;;;;5106585;28;20024;-86
2023/02/15 04:54:25;;;;;;;5.03;2.53;;;;;;;;;;5107410;28;20085;-85
2023/02/15 04:56:51;;;;;;;2.78;1.85;;;;;;;;;;5104823;28;20031;-86
2023/02/15 04:59:17;;;;;;;4.10;2.10;;;;;;;;;;5107592;27;20089;-87
2023/02/15 05:01:43;;;;;;;5.32;2.50;;;;;;;;;;5104876;28;20032;-88
2023/02/15 05:04:09;;;;;;;4.10;2.17;;;;;;;;;;5100607;28;20115;-87
2023/02/15 05:06:35;;;;;;;3.17;2.10;;;;;;;;;;5099704;28;20058;-87
2023/02/15 05:09:01;;;;;;;3.10;1.90;;;;;;;;;;5108014;28;20111;-86
2023/02/15 05:11:27;;;;;;;3.88;2.00;;;;;;;;;;5104005;28;20046;-85
2023/02/15 05:13:53;;;;;;;5.70;2.75;;;;;;;;;;5105117;27;20027;-86
2023/02/15 05:16:19;;;;;;;5.13;2.20;;;;;;;;;;5107113;28;20031;-86
2023/02/15 05:18:45;;;;;;;5.22;2.42;;;;;;;;;;5089143;28;20152;-86
2023/02/15 05:21:13;;;;;;;5.80;2.92;;;;;;;;;;5106813;28;20103;-86
2023/02/15 05:23:39;;;;;;;3.55;2.08;;;;;;;;;;5087958;28;20111;-86
2023/02/15 05:28:50;;;;;;;5.50;2.53;;;;;;;;;;5106951;28;20038;-86
2023/02/15 05:31:19;;;;;;;4.13;2.08;;;;;;;;;;5098358;28;20126;-87
2023/02/15 05:33:51;;;;;;;3.35;2.47;;;;;;;;;;5103452;28;20024;-86
2023/02/15 05:36:17;;;;;;;4.25;2.63;;;;;;;;;;5104956;28;20023;-87
2023/02/15 05:38:43;;;;;;;6.40;2.53;;;;;;;;;;5104835;28;20015;-86
2023/02/15 05:41:10;;;;;;;6.50;2.83;;;;;;;;;;5099596;28;20030;-86
2023/02/15 05:43:36;;;;;;;4.63;2.50;;;;;;;;;;5108346;28;20039;-86
2023/02/15 05:46:02;;;;;;;3.65;2.38;;;;;;;;;;5108647;28;20032;-86
2023/02/15 05:48:29;;;;;;;5.30;2.45;;;;;;;;;;5105041;28;20034;-86
2023/02/15 05:51:08;;;;;;;4.90;2.38;;;;;;;;;;5107720;28;20032;-86
2023/02/15 05:53:35;;;;;;;4.00;2.38;;;;;;;;;;5103093;28;20032;-86
2023/02/15 05:56:04;;;;;;;3.75;2.75;;;;;;;;;;5097187;28;20032;-84
2023/02/15 05:58:32;;;;;;;4.72;2.75;;;;;;;;;;5107809;28;20044;-84
2023/02/15 06:00:57;;;;;;;5.03;2.78;;;;;;;;;;5108416;28;20091;-87
2023/02/15 06:03:25;;;;;;;4.32;2.60;;;;;;;;;;5107283;28;20478;-86
2023/02/15 06:05:51;;;;;;;6.72;2.30;;;;;;;;;;5092606;28;20060;-82
2023/02/15 06:08:17;;;;;;;4.60;2.70;;;;;;;;;;5102760;28;20031;-79
2023/02/15 06:10:43;;;;;;;4.50;2.67;;;;;;;;;;5097418;28;20862;-80
2023/02/15 06:13:09;;;;;;;4.70;2.70;;;;;;;;;;5106777;28;20035;-80
2023/02/15 06:15:35;;;;;;;6.22;2.53;;;;;;;;;;5083101;28;20057;-82
2023/02/15 06:18:01;;;;;;;4.65;2.20;;;;;;;;;;5106676;28;20019;-83
2023/02/15 06:20:27;;;;;;;3.70;2.22;;;;;;;;;;5096659;28;20138;-82
2023/02/15 06:22:53;;;;;;;5.40;2.83;;;;;;;;;;5105729;28;20266;-82
2023/02/15 06:25:19;;;;;;;4.85;2.75;;;;;;;;;;5107797;28;20733;-82
2023/02/15 06:27:45;;;;;;;4.07;2.47;;;;;;;;;;5107864;28;20474;-82
2023/02/15 06:30:11;;;;;;;7.78;3.03;;;;;;;;;;5107631;28;20054;-82
2023/02/15 06:32:37;;;;;;;3.88;2.42;;;;;;;;;;5107575;28;20137;-82
2023/02/15 06:35:04;;;;;;;5.20;2.47;;;;;;;;;;5107670;28;20027;-82
2023/02/15 06:37:30;;;;;;;5.03;2.65;;;;;;;;;;5107810;28;20038;-82
2023/02/15 06:39:56;;;;;;;3.58;2.53;;;;;;;;;;5104991;28;20024;-81
2023/02/15 06:42:22;;;;;;;4.45;2.88;;;;;;;;;;5103944;28;20488;-81
2023/02/15 06:44:48;;;;;;;5.30;2.85;;;;;;;;;;5107970;28;20656;-81
2023/02/15 06:47:14;;;;;;;4.55;2.65;;;;;;;;;;5107760;28;20032;-82
2023/02/15 06:49:40;;;;;;;5.88;3.05;;;;;;;;;;5108260;28;20508;-82
2023/02/15 06:52:06;;;;;;;6.57;2.85;;;;;;;;;;5106807;28;20106;-83
2023/02/15 06:54:32;;;;;;;5.20;2.47;;;;;;;;;;5107508;28;20088;-83
2023/02/15 06:56:58;;;;;;;6.85;3.08;;;;;;;;;;5107305;28;20031;-83
2023/02/15 06:59:24;;;;;;;7.53;3.35;;;;;;;;;;5107445;28;20031;-83
2023/02/15 07:01:50;;;;;;;5.93;3.08;;;;;;;;;;5108091;28;20165;-82
2023/02/15 07:04:16;;;;;;;5.18;2.97;;;;;;;;;;5106919;28;20027;-83
2023/02/15 07:06:42;;;;;;;5.25;2.88;;;;;;;;;;5109412;28;20039;-82
2023/02/15 07:09:08;;;;;;;4.75;2.78;;;;;;;;;;5101100;28;20032;-81
2023/02/15 07:14:19;;;;;;;5.60;3.40;;;;;;;;;;5106279;28;20571;-82
2023/02/15 07:16:44;;;;;;;5.30;3.20;;;;;;;;;;5111179;28;20035;-87
2023/02/15 07:19:10;;;;;;;4.80;3.67;;;;;;;;;;5109463;28;20024;-88
2023/02/15 07:21:37;;;;;;;8.15;3.67;;;;;;;;;;5102989;28;20035;-88
2023/02/15 07:24:03;;;;;;;6.35;3.38;;;;;;;;;;5118111;27;20049;-87
2023/02/15 07:26:31;;;;;;;6.35;3.58;;;;;;;;;;5103250;28;20012;-87
2023/02/15 07:28:57;;;;;;;9.77;3.95;;;;;;;;;;5111272;28;20110;-86
2023/02/15 07:31:23;;;;;;;10.25;4.78;;;;;;;;;;5110206;28;20123;-86
2023/02/15 07:33:49;;;;;;;8.55;3.72;;;;;;;;;;5105921;28;20028;-87
2023/02/15 07:36:15;;;;;;;7.65;4.07;;;;;;;;;;5105547;27;20028;-89
2023/02/15 07:38:42;;;;;;;9.60;4.10;;;;;;;;;;5110789;27;20024;-88
2023/02/15 07:41:09;;;;;;;6.93;4.05;;;;;;;;;;5109798;28;20027;-89
2023/02/15 07:43:36;;;;;;;8.75;4.90;;;;;;;;;;5109710;28;20045;-87
2023/02/15 07:46:04;;;;;;;10.13;4.50;;;;;;;;;;5107319;27;20043;-86
2023/02/15 07:48:30;;;;;;;7.32;4.35;;;;;;;;;;5101703;28;20486;-88
2023/02/15 07:50:59;;;;;;;11.45;4.95;;;;;;;;;;5103129;28;20115;-87
2023/02/15 07:53:25;;;;;;;8.30;4.43;;;;;;;;;;5103006;28;20063;-81
2023/02/15 07:55:52;;;;;;;11.82;5.13;;;;;;;;;;5104171;27;20039;-84
2023/02/15 07:58:18;;;;;;;10.93;5.30;;;;;;;;;;5099957;28;20538;-81
2023/02/15 08:00:56;;;;;;;8.32;4.28;;;;;;;;;;5097218;28;20123;-79
2023/02/15 08:03:28;;;;;;;9.95;4.78;;;;;;;;;;5103241;28;20028;-80
2023/02/15 08:05:58;;;;;;;12.32;4.63;;;;;;;;;;5097180;27;20498;-81
2023/02/15 08:08:30;;;;;;;12.18;5.00;;;;;;;;;;5107863;27;20109;-79
2023/02/15 08:13:55;;;;;;;8.13;4.00;;;;;;;;;;5099026;28;20146;-77
2023/02/15 08:16:26;;;;;;;8.98;4.07;;;;;;;;;;5102851;28;20061;-76
2023/02/15 08:18:52;;;;;;;8.65;4.30;;;;;;;;;;5105815;27;20030;-76
2023/02/15 08:21:19;;;;;;;8.32;4.20;;;;;;;;;;5109885;28;20016;-76
2023/02/15 08:23:45;;;;;;;9.23;4.18;;;;;;;;;;5096309;28;20359;-85
2023/02/15 08:26:11;;;;;;;8.95;4.20;;;;;;;;;;5109065;28;20122;-81
2023/02/15 08:28:37;;;;;;;7.85;3.95;;;;;;;;;;5110479;27;20030;-81
2023/02/15 08:31:09;;;;;;;9.40;4.05;;;;;;;;;;5101668;28;20027;-80
2023/02/15 08:33:37;;;;;;;11.10;4.30;;;;;;;;;;5107919;28;20717;-79
2023/02/15 08:36:03;;;;;;;9.68;4.03;;;;;;;;;;5100178;27;20024;-79
2023/02/15 08:38:29;;;;;;;7.80;4.20;;;;;;;;;;5106898;27;20716;-79
2023/02/15 08:40:55;;;;;;;8.60;4.65;;;;;;;;;;5095601;28;20070;-81
2023/02/15 08:43:22;;;;;;;8.57;3.70;;;;;;;;;;5098918;28;20035;-82
2023/02/15 08:45:48;;;;;;;8.90;4.15;;;;;;;;;;5107668;28;20030;-81
2023/02/15 08:48:14;;;;;;;9.65;4.70;;;;;;;;;;5102867;28;20028;-81
2023/02/15 08:50:40;;;;;;;7.97;4.47;;;;;;;;;;5117330;27;20388;-81
2023/02/15 08:53:06;;;;;;;6.80;4.32;;;;;;;;;;5101692;28;20035;-81
2023/02/15 08:55:32;;;;;;;11.48;4.90;;;;;;;;;;5104789;28;20463;-81
2023/02/15 08:57:58;;;;;;;9.07;4.80;;;;;;;;;;5100080;28;20028;-81
2023/02/15 09:00:24;;;;;;;9.15;3.90;;;;;;;;;;5107397;27;20036;-81
2023/02/15 09:02:52;;;;;;;10.10;3.83;;;;;;;;;;5105059;28;20046;-81
2023/02/15 09:05:18;;;;;;;10.57;4.88;;;;;;;;;;5101650;28;20020;-82
2023/02/15 09:07:44;;;;;;;11.05;4.47;;;;;;;;;;5102724;28;20592;-82
2023/02/15 09:10:10;;;;;;;10.48;4.78;;;;;;;;;;5106385;27;20027;-82
2023/02/15 09:12:36;;;;;;;7.65;4.20;;;;;;;;;;5106107;27;20401;-93
2023/02/15 09:15:03;;;;;;;9.35;3.70;;;;;;;;;;5109008;28;20040;-94
2023/02/15 09:17:29;;;;;;;10.02;4.50;;;;;;;;;;5098548;28;20069;-93
2023/02/15 09:19:55;;;;;;;10.10;4.35;;;;;;;;;;5107822;28;20027;-94
2023/02/15 09:22:21;;;;;;;10.73;5.10;;;;;;;;;;5125560;27;20500;-94
2023/02/15 09:24:47;;;;;;;10.20;4.85;;;;;;;;;;5118410;28;20028;-94
2023/02/15 09:27:13;;;;;;;8.63;4.60;;;;;;;;;;5111878;28;20076;-95
2023/02/15 09:29:39;;;;;;;7.90;3.97;;;;;;;;;;5110772;28;20089;-95
2023/02/15 09:32:05;;;;;;;7.10;3.92;;;;;;;;;;5110123;28;20160;-92
2023/02/15 09:34:31;;;;;;;9.15;4.55;;;;;;;;;;5114700;28;20486;-96
2023/02/15 09:37:07;;;;;;;9.07;4.57;;;;;;;;;;5529144;22;20056;-95
2023/02/15 09:39:38;;;;;;;11.88;5.00;;;;;;;;;;5067601;28;20112;-95
2023/02/15 09:42:23;;;;;;;9.25;4.05;;;;;;;;;;5073141;28;20020;-95
2023/02/15 09:45:29;;;;;;;9.75;4.65;;;;;;;;;;5070334;28;20031;-94
2023/02/15 09:48:01;;;;;;;8.45;4.22;;;;;;;;;;5065177;28;20109;-94
2023/02/15 09:50:41;;;;;;;7.63;3.78;;;;;;;;;;5072485;28;20107;-94
2023/02/15 09:53:26;;;;;;;8.73;4.47;;;;;;;;;;5070133;28;20040;-93
2023/02/15 09:56:17;;;;;;;11.68;4.65;;;;;;;;;;5070712;28;20475;-93
2023/02/15 09:58:55;;;;;;;9.83;3.70;;;;;;;;;;5053906;28;20032;-92
2023/02/15 10:01:42;;;;;;;9.32;3.75;;;;;;;;;;5071761;28;20047;-94
2023/02/15 10:04:26;;;;;;;12.38;4.80;;;;;;;;;;5069909;28;20073;-94
2023/02/15 10:07:12;;;;;;;8.60;4.10;;;;;;;;;;5061864;28;20020;-94
2023/02/15 10:09:43;;;;;;;9.93;4.00;;;;;;;;;;5062899;28;20025;-93
2023/02/15 10:12:30;;;;;;;6.60;3.58;;;;;;;;;;5071098;28;20108;-94
2023/02/15 10:15:15;;;;;;;9.55;4.30;;;;;;;;;;5070639;28;20107;-92
2023/02/15 10:17:50;;;;;;;8.60;4.47;;;;;;;;;;5067674;28;20017;-94
2023/02/15 10:20:28;;;;;;;11.00;4.10;;;;;;;;;;5070100;28;20036;-94
2023/02/15 10:23:06;;;;;;;7.47;3.95;;;;;;;;;;5061760;28;20024;-94
2023/02/15 10:26:13;;;;;;;7.82;3.83;;;;;;;;;;5070709;28;20037;-93
2023/02/15 10:28:43;;;;;;;11.35;4.45;;;;;;;;;;5070419;28;20043;-94
2023/02/15 10:31:15;;;;;;;11.07;4.32;;;;;;;;;;5083127;28;20029;-95
2023/02/15 10:34:08;;;;;;;13.82;4.88;;;;;;;;;;5067114;28;20115;-94
2023/02/15 10:36:45;;;;;;;7.75;3.70;;;;;;;;;;5073931;28;20040;-94
2023/02/15 10:39:26;;;;;;;7.63;4.40;;;;;;;;;;5069560;28;20017;-95
2023/02/15 10:42:11;;;;;;;7.33;3.67;;;;;;;;;;5049099;28;20479;-94
2023/02/15 10:44:56;;;;;;;6.88;3.85;;;;;;;;;;5067024;28;20024;-94
2023/02/15 10:47:30;;;;;;;12.77;3.88;;;;;;;;;;5069705;28;20103;-93
2023/02/15 10:49:56;;;;;;;9.73;3.97;;;;;;;;;;5062048;28;20028;-94
2023/02/15 10:52:22;;;;;;;6.47;3.72;;;;;;;;;;5062025;28;20261;-94
2023/02/15 10:54:58;;;;;;;8.82;3.53;;;;;;;;;;5058148;28;20383;-93
2023/02/15 10:57:33;;;;;;;9.23;3.55;;;;;;;;;;5044001;28;20353;-95
2023/02/15 11:00:12;;;;;;;8.75;3.70;;;;;;;;;;5062426;28;20052;-94
2023/02/15 11:02:51;;;;;;;7.68;3.85;;;;;;;;;;5054764;28;20491;-92
2023/02/15 11:05:40;;;;;;;8.43;3.42;;;;;;;;;;5064464;28;20518;-94
2023/02/15 11:08:07;;;;;;;5.85;2.80;;;;;;;;;;5073770;28;20020;-94
2023/02/15 11:10:46;;;;;;;6.05;3.50;;;;;;;;;;5050775;28;20052;-94
2023/02/15 11:13:16;;;;;;;6.93;3.50;;;;;;;;;;5065304;28;20029;-95
2023/02/15 11:18:59;;;;;;;9.32;3.85;;;;;;;;;;4970148;28;20067;-94
2023/02/15 11:21:32;;;;;;;9.45;3.97;;;;;;;;;;5073629;28;20073;-95
2023/02/15 11:23:59;;;;;;;10.52;4.00;;;;;;;;;;5064624;28;20047;-94
2023/02/15 11:26:34;;;;;;;9.95;3.60;;;;;;;;;;5067507;28;20029;-94
2023/02/15 11:29:00;;;;;;;6.45;3.97;;;;;;;;;;5058912;28;20035;-94
2023/02/15 11:31:27;;;;;;;7.70;4.13;;;;;;;;;;5062460;28;20028;-94
2023/02/15 11:33:56;;;;;;;6.93;3.80;;;;;;;;;;5067297;28;20457;-93
2023/02/15 11:36:34;;;;;;;7.05;3.65;;;;;;;;;;5066008;28;20020;-95
2023/02/15 11:39:03;;;;;;;7.25;3.72;;;;;;;;;;5021349;28;20064;-94
2023/02/15 11:41:32;;;;;;;10.00;3.65;;;;;;;;;;5027402;28;20116;-95
2023/02/15 11:43:58;;;;;;;5.85;3.65;;;;;;;;;;5026793;28;20030;-94
2023/02/15 11:46:24;;;;;;;6.63;3.92;;;;;;;;;;5021516;28;20026;-95
2023/02/15 11:48:50;;;;;;;6.63;3.65;;;;;;;;;;5026813;28;20052;-94
2023/02/15 11:51:18;;;;;;;8.15;3.60;;;;;;;;;;5027864;28;20147;-95
2023/02/15 11:53:45;;;;;;;7.07;3.83;;;;;;;;;;5023540;28;20025;-95
2023/02/15 11:56:19;;;;;;;9.50;3.65;;;;;;;;;;5020499;28;20017;-94
2023/02/15 11:59:04;;;;;;;5.90;3.08;;;;;;;;;;5030602;28;20117;-95
2023/02/15 12:01:38;;;;;;;8.80;3.72;;;;;;;;;;5034676;28;20030;-93
2023/02/15 12:04:23;;;;;;;5.60;3.15;;;;;;;;;;5024173;28;20053;-95
2023/02/15 12:06:55;;;;;;;6.57;3.40;;;;;;;;;;5035804;28;20446;-95
2023/02/15 12:09:29;;;;;;;5.38;2.88;;;;;;;;;;5017201;28;20050;-95
2023/02/15 12:12:13;;;;;;;6.63;3.53;;;;;;;;;;5027280;28;20111;-96
2023/02/15 12:14:49;;;;;;;7.47;3.33;;;;;;;;;;5024320;28;20037;-95
2023/02/15 12:17:16;;;;;;;7.70;2.83;;;;;;;;;;5034271;28;20033;-95
2023/02/15 12:19:52;;;;;;;8.35;3.92;;;;;;;;;;5032028;28;20033;-95
2023/02/15 12:22:58;;;;;;;6.72;3.72;;;;;;;;;;5025490;28;20029;-96
2023/02/15 12:35:05;;;;;;;5.20;2.92;;;;;;;;;;5032576;28;20041;-96
2023/02/15 13:01:37;;;;;;;6.18;3.60;;;;;;;;;;5538366;23;20042;-95
2023/02/15 13:04:13;;;;;;;8.20;3.45;;;;;;;;;;5010899;28;20021;-94
2023/02/15 13:07:00;;;;;;;5.45;3.10;;;;;;;;;;4958515;28;20054;-95
2023/02/15 13:09:35;;;;;;;8.43;3.75;;;;;;;;;;4992716;28;20058;-95
2023/02/15 13:12:23;;;;;;;5.38;2.85;;;;;;;;;;4988185;28;20030;-93
2023/02/15 13:14:54;;;;;;;6.03;3.75;;;;;;;;;;4997405;28;20049;-94
2023/02/15 13:17:20;;;;;;;;;;;;;;;;;;4995403;28;20054;-94
2023/02/15 13:19:51;;;;;;;4.95;3.30;;;;;;;;;;4990374;28;19999;-93
2023/02/15 13:22:45;;;;;;;8.23;3.28;;;;;;;;;;4995798;28;20026;-92
2023/02/15 13:25:41;;;;;;;;;;;;;;;;;;;;;
2023/02/15 13:28:11;;;;;;;6.28;3.47;;;;;;;;;;4986319;28;20496;-92
2023/02/15 13:30:46;;;;;;;5.20;3.05;;;;;;;;;;4981511;28;20030;-94
2023/02/15 13:36:47;;;;;;;5.50;3.05;;;;;;;;;;4992760;28;20038;-93
2023/02/15 13:39:35;;;;;;;5.10;2.95;;;;;;;;;;4991133;28;20028;-93
2023/02/15 13:42:23;;;;;;;5.30;3.25;;;;;;;;;;4989173;28;20015;-94
2023/02/15 13:48:05;;;;;;;5.75;2.60;;;;;;;;;;4984496;28;20172;-93
2023/02/15 13:50:56;;;;;;;5.63;2.50;;;;;;;;;;4998427;28;20496;-93
2023/02/15 13:53:59;;;;;;;;;;;;;;;;;;;;;
2023/02/15 13:56:41;;;;;;;5.85;3.22;;;;;;;;;;4975494;28;20027;-93
2023/02/15 13:59:19;;;;;;;6.07;3.05;;;;;;;;;;4982907;28;20027;-89
2023/02/15 14:01:59;;;;;;;5.47;3.58;;;;;;;;;;4976054;28;20049;-82
2023/02/15 14:04:31;;;;;;;4.93;2.92;;;;;;;;;;4984302;28;20508;-81
2023/02/15 14:07:04;;;;;;;4.93;2.78;;;;;;;;;;4979061;28;20046;-82
2023/02/15 14:09:52;;;;;;;6.85;3.70;;;;;;;;;;4983546;28;20030;-83
2023/02/15 14:12:21;;;;;;;4.65;2.95;;;;;;;;;;4988873;28;20557;-80
2023/02/15 14:15:26;;;;;;;5.65;2.70;;;;;;;;;;4984987;28;20034;-85
2023/02/15 14:17:52;;;;;;;5.65;2.95;;;;;;;;;;4893627;29;20032;-86
2023/02/15 14:20:22;;;;;;;4.38;2.63;;;;;;;;;;4891589;29;20037;-81
2023/02/15 14:23:10;;;;;;;5.47;3.00;;;;;;;;;;4936170;28;20038;-80
2023/02/15 14:25:43;;;;;;;6.13;2.70;;;;;;;;;;4978084;28;20034;-80
2023/02/15 14:28:16;;;;;;;6.05;2.88;;;;;;;;;;4983217;28;20067;-86
2023/02/15 14:30:44;;;;;;;4.55;2.85;;;;;;;;;;4988614;28;20481;-77
2023/02/15 14:33:28;;;;;;;4.35;2.78;;;;;;;;;;4988985;28;20178;-86
2023/02/15 14:36:13;;;;;;;5.40;3.22;;;;;;;;;;4996563;28;20040;-85
2023/02/15 14:38:42;;;;;;;6.93;3.20;;;;;;;;;;4985009;28;20188;-85
2023/02/15 14:41:31;;;;;;;10.40;3.15;;;;;;;;;;5004886;28;20062;-85
2023/02/15 14:44:09;;;;;;;6.00;2.90;;;;;;;;;;4979120;28;20122;-86
2023/02/15 14:46:53;;;;;;;5.03;2.95;;;;;;;;;;4979866;28;20031;-85
2023/02/15 14:49:27;;;;;;;5.85;3.20;;;;;;;;;;4991040;28;20050;-85
2023/02/15 14:51:58;;;;;;;5.13;3.13;;;;;;;;;;4989458;28;20030;-85
2023/02/15 14:54:24;;;;;;;;;;;;;;;;;;4996483;28;20038;-85
2023/02/15 14:57:02;;;;;;;3.50;2.35;;;;;;;;;;4991908;28;20004;-85
2023/02/15 14:59:40;;;;;;;5.25;2.80;;;;;;;;;;4990040;28;20110;-85
2023/02/15 15:02:08;;;;;;;6.70;2.90;;;;;;;;;;4995117;28;20047;-85
2023/02/15 15:04:36;;;;;;;5.40;2.97;;;;;;;;;;4982143;28;20038;-80
2023/02/15 15:07:21;;;;;;;4.05;2.80;;;;;;;;;;4978701;28;20100;-81
2023/02/15 15:09:57;;;;;;;5.60;2.78;;;;;;;;;;4974170;28;20023;-77
2023/02/15 15:12:27;;;;;;;4.10;3.08;;;;;;;;;;4987122;28;20034;-82
2023/02/15 15:14:54;;;;;;;5.13;3.03;;;;;;;;;;4988925;28;20408;-82
2023/02/15 15:17:37;;;;;;;4.68;2.75;;;;;;;;;;4997587;28;20098;-79
2023/02/15 15:20:07;;;;;;;6.03;2.88;;;;;;;;;;4984981;28;20030;-76
2023/02/15 15:22:33;;;;;;;4.90;2.60;;;;;;;;;;4990723;28;20101;-85
2023/02/15 15:25:10;;;;;;;5.15;2.75;;;;;;;;;;4987920;28;20037;-79
2023/02/15 15:27:45;;;;;;;5.47;2.72;;;;;;;;;;4986632;28;20034;-81
2023/02/15 15:30:14;;;;;;;6.15;3.03;;;;;;;;;;4993359;28;20683;-80
2023/02/15 15:32:54;;;;;;;4.82;2.85;;;;;;;;;;4980444;28;20057;-80
2023/02/15 15:35:39;;;;;;;4.75;3.15;;;;;;;;;;4979555;28;20892;-80
2023/02/15 15:38:14;;;;;;;4.55;2.70;;;;;;;;;;4986958;28;20031;-81
2023/02/15 15:40:59;;;;;;;3.50;2.40;;;;;;;;;;4981889;28;20041;-81
2023/02/15 15:43:36;;;;;;;4.63;2.70;;;;;;;;;;4974088;28;20030;-80
2023/02/15 15:46:21;;;;;;;6.07;3.17;;;;;;;;;;4985984;28;20065;-81
2023/02/15 15:48:47;;;;;;;4.63;2.63;;;;;;;;;;4980481;28;20404;-80
2023/02/15 15:51:31;;;;;;;4.05;2.55;;;;;;;;;;4978436;28;20042;-81
2023/02/15 15:54:06;;;;;;;3.47;2.50;;;;;;;;;;4984606;28;20125;-84
2023/02/15 15:56:39;;;;;;;5.30;2.55;;;;;;;;;;4984282;28;20029;-83
2023/02/15 15:59:06;;;;;;;6.68;2.97;;;;;;;;;;4988251;28;20492;-83
2023/02/15 16:01:38;;;;;;;5.07;3.00;;;;;;;;;;4980147;28;20046;-83
2023/02/15 16:04:04;;;;;;;6.85;3.40;;;;;;;;;;4983161;28;20456;-83
2023/02/15 16:06:37;;;;;;;9.32;3.55;;;;;;;;;;4996173;28;20065;-79
2023/02/15 16:09:29;;;;;;;3.83;2.58;;;;;;;;;;4987272;28;20022;-79
2023/02/15 16:12:04;;;;;;;4.43;2.50;;;;;;;;;;4979787;28;20034;-77
2023/02/15 16:14:36;;;;;;;6.03;3.10;;;;;;;;;;4983269;28;20046;-83
2023/02/15 16:17:05;;;;;;;3.28;2.28;;;;;;;;;;4983078;28;20034;-79
2023/02/15 16:19:34;;;;;;;6.38;2.78;;;;;;;;;;4983770;28;20149;-80
2023/02/15 16:22:01;;;;;;;6.75;2.65;;;;;;;;;;4981070;28;20488;-79
2023/02/15 16:24:46;;;;;;;7.45;2.90;;;;;;;;;;4986785;28;20030;-81